sensor_id;sensor_type;location;lat;lon;timestamp;temperature;humidity
21518;DHT22;61765;45.794;24.150;2022-12-18T00:05:22;10.40;84.50
21518;DHT22;61765;45.794;24.150;2022-12-18T00:13:31;10.50;83.90
21518;DHT22;61765;45.794;24.150;2022-12-18T00:21:37;10.20;84.40
21518;DHT22;61765;45.794;24.150;2022-12-18T00:29:46;10.00;85.20
21518;DHT22;61765;45.794;24.150;2022-12-18T00:37:51;10.40;84.20
21518;DHT22;61765;45.794;24.150;2022-12-18T00:46:00;10.40;84.60
21518;DHT22;61765;45.794;24.150;2022-12-18T00:54:06;10.60;83.80
21518;DHT22;61765;45.794;24.150;2022-12-18T01:02:15;10.20;84.50
21518;DHT22;61765;45.794;24.150;2022-12-18T01:10:21;10.10;84.70
21518;DHT22;61765;45.794;24.150;2022-12-18T01:18:29;10.00;84.70
21518;DHT22;61765;45.794;24.150;2022-12-18T01:26:35;10.10;84.30
21518;DHT22;61765;45.794;24.150;2022-12-18T01:34:43;10.20;83.30
21518;DHT22;61765;45.794;24.150;2022-12-18T01:42:50;9.60;84.80
21518;DHT22;61765;45.794;24.150;2022-12-18T01:51:01;9.40;84.90
21518;DHT22;61765;45.794;24.150;2022-12-18T01:59:09;9.60;83.80
21518;DHT22;61765;45.794;24.150;2022-12-18T02:07:27;9.40;83.40
21518;DHT22;61765;45.794;24.150;2022-12-18T02:15:40;9.50;83.60
21518;DHT22;61765;45.794;24.150;2022-12-18T02:23:56;9.30;84.00
21518;DHT22;61765;45.794;24.150;2022-12-18T02:32:11;9.40;84.10
21518;DHT22;61765;45.794;24.150;2022-12-18T02:40:19;9.10;84.10
21518;DHT22;61765;45.794;24.150;2022-12-18T02:48:29;9.10;83.80
21518;DHT22;61765;45.794;24.150;2022-12-18T02:56:38;9.30;83.40
21518;DHT22;61765;45.794;24.150;2022-12-18T03:04:49;8.90;84.30
21518;DHT22;61765;45.794;24.150;2022-12-18T03:13:00;8.80;83.90
21518;DHT22;61765;45.794;24.150;2022-12-18T03:21:11;8.90;83.60
21518;DHT22;61765;45.794;24.150;2022-12-18T03:29:21;9.10;83.40
21518;DHT22;61765;45.794;24.150;2022-12-18T03:37:33;9.20;83.00
21518;DHT22;61765;45.794;24.150;2022-12-18T03:45:44;9.10;83.20
21518;DHT22;61765;45.794;24.150;2022-12-18T03:53:58;8.70;82.70
21518;DHT22;61765;45.794;24.150;2022-12-18T04:02:08;8.80;83.10
21518;DHT22;61765;45.794;24.150;2022-12-18T04:10:17;8.80;83.60
21518;DHT22;61765;45.794;24.150;2022-12-18T04:18:23;8.90;83.00
21518;DHT22;61765;45.794;24.150;2022-12-18T04:26:32;8.90;82.60
21518;DHT22;61765;45.794;24.150;2022-12-18T04:34:47;8.90;82.90
21518;DHT22;61765;45.794;24.150;2022-12-18T04:42:55;8.80;83.00
21518;DHT22;61765;45.794;24.150;2022-12-18T04:51:01;8.80;82.70
21518;DHT22;61765;45.794;24.150;2022-12-18T04:59:09;8.90;82.60
21518;DHT22;61765;45.794;24.150;2022-12-18T05:07:14;9.10;81.80
21518;DHT22;61765;45.794;24.150;2022-12-18T05:15:22;9.00;81.80
21518;DHT22;61765;45.794;24.150;2022-12-18T05:23:27;9.00;82.90
21518;DHT22;61765;45.794;24.150;2022-12-18T05:31:38;9.10;81.70
21518;DHT22;61765;45.794;24.150;2022-12-18T05:39:44;8.90;81.80
21518;DHT22;61765;45.794;24.150;2022-12-18T05:47:52;9.30;81.60
21518;DHT22;61765;45.794;24.150;2022-12-18T05:56:00;9.00;81.80
21518;DHT22;61765;45.794;24.150;2022-12-18T06:04:09;9.20;81.50
21518;DHT22;61765;45.794;24.150;2022-12-18T06:12:14;9.40;80.90
21518;DHT22;61765;45.794;24.150;2022-12-18T06:20:22;9.10;81.20
21518;DHT22;61765;45.794;24.150;2022-12-18T06:28:34;9.40;80.50
21518;DHT22;61765;45.794;24.150;2022-12-18T06:36:42;9.30;80.00
21518;DHT22;61765;45.794;24.150;2022-12-18T06:44:47;9.50;79.50
21518;DHT22;61765;45.794;24.150;2022-12-18T06:52:55;9.30;78.80
21518;DHT22;61765;45.794;24.150;2022-12-18T07:01:01;9.40;78.60
21518;DHT22;61765;45.794;24.150;2022-12-18T07:09:10;9.30;78.20
21518;DHT22;61765;45.794;24.150;2022-12-18T07:17:15;9.10;77.70
21518;DHT22;61765;45.794;24.150;2022-12-18T07:25:24;9.50;77.50
21518;DHT22;61765;45.794;24.150;2022-12-18T07:33:30;9.50;77.50
21518;DHT22;61765;45.794;24.150;2022-12-18T07:41:39;9.60;76.10
21518;DHT22;61765;45.794;24.150;2022-12-18T07:49:50;9.40;75.70
21518;DHT22;61765;45.794;24.150;2022-12-18T07:58:00;9.70;76.10
21518;DHT22;61765;45.794;24.150;2022-12-18T08:06:08;9.70;75.80
21518;DHT22;61765;45.794;24.150;2022-12-18T08:14:16;9.70;75.80
21518;DHT22;61765;45.794;24.150;2022-12-18T08:22:21;9.60;76.20
21518;DHT22;61765;45.794;24.150;2022-12-18T08:30:30;10.00;76.10
21518;DHT22;61765;45.794;24.150;2022-12-18T08:38:36;9.90;76.10
21518;DHT22;61765;45.794;24.150;2022-12-18T08:46:45;10.20;76.10
21518;DHT22;61765;45.794;24.150;2022-12-18T08:54:51;10.40;75.60
21518;DHT22;61765;45.794;24.150;2022-12-18T09:02:59;10.40;75.30
21518;DHT22;61765;45.794;24.150;2022-12-18T09:11:09;10.50;75.30
21518;DHT22;61765;45.794;24.150;2022-12-18T09:19:19;10.80;75.60
21518;DHT22;61765;45.794;24.150;2022-12-18T09:27:26;10.90;75.20
21518;DHT22;61765;45.794;24.150;2022-12-18T09:35:36;11.00;73.60
21518;DHT22;61765;45.794;24.150;2022-12-18T09:43:43;11.20;72.50
21518;DHT22;61765;45.794;24.150;2022-12-18T09:51:59;10.70;72.30
21518;DHT22;61765;45.794;24.150;2022-12-18T10:00:15;10.80;74.10
21518;DHT22;61765;45.794;24.150;2022-12-18T10:08:29;10.90;73.80
21518;DHT22;61765;45.794;24.150;2022-12-18T10:16:46;10.80;74.70
21518;DHT22;61765;45.794;24.150;2022-12-18T10:25:00;10.80;75.20
21518;DHT22;61765;45.794;24.150;2022-12-18T10:33:10;10.70;74.90
21518;DHT22;61765;45.794;24.150;2022-12-18T10:41:26;10.40;74.90
21518;DHT22;61765;45.794;24.150;2022-12-18T10:49:34;10.60;75.20
21518;DHT22;61765;45.794;24.150;2022-12-18T10:57:43;10.20;76.10
21518;DHT22;61765;45.794;24.150;2022-12-18T11:06:01;10.10;77.30
21518;DHT22;61765;45.794;24.150;2022-12-18T11:14:14;9.60;78.30
21518;DHT22;61765;45.794;24.150;2022-12-18T11:22:23;9.30;78.70
21518;DHT22;61765;45.794;24.150;2022-12-18T11:30:34;9.20;79.70
21518;DHT22;61765;45.794;24.150;2022-12-18T11:38:42;9.10;79.20
21518;DHT22;61765;45.794;24.150;2022-12-18T11:46:55;8.90;79.60
21518;DHT22;61765;45.794;24.150;2022-12-18T11:55:11;8.70;80.00
21518;DHT22;61765;45.794;24.150;2022-12-18T12:03:47;8.80;80.20
21518;DHT22;61765;45.794;24.150;2022-12-18T12:12:08;9.40;79.30
21518;DHT22;61765;45.794;24.150;2022-12-18T12:20:22;9.60;79.60
21518;DHT22;61765;45.794;24.150;2022-12-18T12:28:54;9.50;77.60
21518;DHT22;61765;45.794;24.150;2022-12-18T12:37:15;9.50;77.80
21518;DHT22;61765;45.794;24.150;2022-12-18T12:45:32;9.50;78.50
21518;DHT22;61765;45.794;24.150;2022-12-18T12:53:42;9.50;78.20
21518;DHT22;61765;45.794;24.150;2022-12-18T13:01:52;9.70;77.50
21518;DHT22;61765;45.794;24.150;2022-12-18T13:10:30;9.70;77.40
21518;DHT22;61765;45.794;24.150;2022-12-18T13:18:37;9.80;76.70
21518;DHT22;61765;45.794;24.150;2022-12-18T13:26:46;9.80;76.30
21518;DHT22;61765;45.794;24.150;2022-12-18T13:43:46;9.90;75.00
21518;DHT22;61765;45.794;24.150;2022-12-18T13:51:54;9.50;74.20
21518;DHT22;61765;45.794;24.150;2022-12-18T14:00:25;9.70;74.30
21518;DHT22;61765;45.794;24.150;2022-12-18T14:08:35;9.70;74.10
21518;DHT22;61765;45.794;24.150;2022-12-18T14:16:46;9.50;73.20
21518;DHT22;61765;45.794;24.150;2022-12-18T14:25:12;9.40;73.50
21518;DHT22;61765;45.794;24.150;2022-12-18T14:33:22;9.20;74.00
21518;DHT22;61765;45.794;24.150;2022-12-18T14:41:28;9.20;74.10
21518;DHT22;61765;45.794;24.150;2022-12-18T14:49:41;8.90;75.00
21518;DHT22;61765;45.794;24.150;2022-12-18T14:57:50;8.80;75.00
21518;DHT22;61765;45.794;24.150;2022-12-18T15:06:15;8.70;75.00
21518;DHT22;61765;45.794;24.150;2022-12-18T15:14:24;8.70;75.80
21518;DHT22;61765;45.794;24.150;2022-12-18T15:22:35;8.50;75.80
21518;DHT22;61765;45.794;24.150;2022-12-18T15:31:01;8.80;75.80
21518;DHT22;61765;45.794;24.150;2022-12-18T15:39:13;8.50;76.00
21518;DHT22;61765;45.794;24.150;2022-12-18T15:47:21;8.60;75.70
21518;DHT22;61765;45.794;24.150;2022-12-18T15:55:30;8.80;76.20
21518;DHT22;61765;45.794;24.150;2022-12-18T16:03:55;8.70;75.90
21518;DHT22;61765;45.794;24.150;2022-12-18T16:12:04;9.10;76.00
21518;DHT22;61765;45.794;24.150;2022-12-18T16:20:12;9.00;75.40
21518;DHT22;61765;45.794;24.150;2022-12-18T16:28:20;8.80;76.00
21518;DHT22;61765;45.794;24.150;2022-12-18T16:36:26;8.90;76.20
21518;DHT22;61765;45.794;24.150;2022-12-18T16:44:35;8.80;75.90
21518;DHT22;61765;45.794;24.150;2022-12-18T16:52:41;9.00;75.20
21518;DHT22;61765;45.794;24.150;2022-12-18T17:00:49;8.80;75.60
21518;DHT22;61765;45.794;24.150;2022-12-18T17:08:54;8.60;75.10
21518;DHT22;61765;45.794;24.150;2022-12-18T17:17:03;8.60;75.00
21518;DHT22;61765;45.794;24.150;2022-12-18T17:25:23;8.70;75.00
21518;DHT22;61765;45.794;24.150;2022-12-18T17:33:31;8.60;75.10
21518;DHT22;61765;45.794;24.150;2022-12-18T17:41:36;8.60;75.10
21518;DHT22;61765;45.794;24.150;2022-12-18T17:49:44;8.60;74.90
21518;DHT22;61765;45.794;24.150;2022-12-18T17:57:50;8.80;75.10
21518;DHT22;61765;45.794;24.150;2022-12-18T18:05:59;8.90;75.30
21518;DHT22;61765;45.794;24.150;2022-12-18T18:14:09;8.70;74.60
21518;DHT22;61765;45.794;24.150;2022-12-18T18:22:18;8.70;75.00
21518;DHT22;61765;45.794;24.150;2022-12-18T18:30:25;8.70;74.80
21518;DHT22;61765;45.794;24.150;2022-12-18T18:38:34;8.70;74.70
21518;DHT22;61765;45.794;24.150;2022-12-18T18:46:40;8.60;74.30
21518;DHT22;61765;45.794;24.150;2022-12-18T18:54:49;8.70;74.90
21518;DHT22;61765;45.794;24.150;2022-12-18T19:03:14;8.40;75.80
21518;DHT22;61765;45.794;24.150;2022-12-18T19:11:26;8.60;75.60
21518;DHT22;61765;45.794;24.150;2022-12-18T19:19:56;8.50;75.10
21518;DHT22;61765;45.794;24.150;2022-12-18T19:28:04;8.50;75.10
21518;DHT22;61765;45.794;24.150;2022-12-18T19:36:25;8.50;75.10
21518;DHT22;61765;45.794;24.150;2022-12-18T19:44:36;8.40;74.80
21518;DHT22;61765;45.794;24.150;2022-12-18T19:52:41;7.90;76.00
21518;DHT22;61765;45.794;24.150;2022-12-18T20:00:50;7.30;76.70
21518;DHT22;61765;45.794;24.150;2022-12-18T20:08:59;7.10;77.70
21518;DHT22;61765;45.794;24.150;2022-12-18T20:17:08;7.50;77.40
21518;DHT22;61765;45.794;24.150;2022-12-18T20:25:21;7.70;77.40
21518;DHT22;61765;45.794;24.150;2022-12-18T20:33:32;7.80;77.50
21518;DHT22;61765;45.794;24.150;2022-12-18T20:41:52;7.60;78.30
21518;DHT22;61765;45.794;24.150;2022-12-18T20:50:04;7.40;78.20
21518;DHT22;61765;45.794;24.150;2022-12-18T20:58:10;7.50;78.00
21518;DHT22;61765;45.794;24.150;2022-12-18T21:06:22;7.30;78.40
21518;DHT22;61765;45.794;24.150;2022-12-18T21:14:32;7.40;78.70
21518;DHT22;61765;45.794;24.150;2022-12-18T21:22:40;7.10;78.40
21518;DHT22;61765;45.794;24.150;2022-12-18T21:30:45;7.10;79.00
21518;DHT22;61765;45.794;24.150;2022-12-18T21:38:55;7.10;79.10
21518;DHT22;61765;45.794;24.150;2022-12-18T21:47:00;7.00;79.70
21518;DHT22;61765;45.794;24.150;2022-12-18T21:55:26;6.60;80.70
21518;DHT22;61765;45.794;24.150;2022-12-18T22:03:31;6.50;80.80
21518;DHT22;61765;45.794;24.150;2022-12-18T22:11:40;6.40;80.90
21518;DHT22;61765;45.794;24.150;2022-12-18T22:19:46;6.30;80.70
21518;DHT22;61765;45.794;24.150;2022-12-18T22:27:54;6.30;80.20
21518;DHT22;61765;45.794;24.150;2022-12-18T22:36:11;6.20;79.80
21518;DHT22;61765;45.794;24.150;2022-12-18T22:44:21;6.40;79.70
21518;DHT22;61765;45.794;24.150;2022-12-18T22:52:27;6.80;79.70
21518;DHT22;61765;45.794;24.150;2022-12-18T23:00:35;6.60;79.90
21518;DHT22;61765;45.794;24.150;2022-12-18T23:08:40;6.50;80.20
21518;DHT22;61765;45.794;24.150;2022-12-18T23:16:48;6.30;80.10
21518;DHT22;61765;45.794;24.150;2022-12-18T23:24:54;6.20;80.70
21518;DHT22;61765;45.794;24.150;2022-12-18T23:33:02;5.90;80.90
21518;DHT22;61765;45.794;24.150;2022-12-18T23:41:09;5.80;81.30
21518;DHT22;61765;45.794;24.150;2022-12-18T23:49:17;5.80;82.50
21518;DHT22;61765;45.794;24.150;2022-12-18T23:57:23;5.70;82.60
